This is the latest recevied weather packets stored in our database for station/object KD0RIH. If no packets are shown the sender has not sent any weather packets the latest 10 day(s).
| Time | Temp. | Humidity | Pressure | Rain* | Wind** | Luminosity | Snow |
|---|---|---|---|---|---|---|---|
| 1777492228 | 21.11° C | 33% | 1019.5 hPa | 0 mm | - | 774 W/m² | - |
| 1777491926 | 21.11° C | 33% | 1019.4 hPa | 0 mm | - | 322 W/m² | - |
| 1777491621 | 21.67° C | 33% | 1019.6 hPa | 0 mm | - | 974 W/m² | - |
| 1777491320 | 21.11° C | 32% | 1019.4 hPa | 0 mm | - | 888 W/m² | - |
| 1777491016 | 21.67° C | 32% | 1019.5 hPa | 0 mm | - | 678 W/m² | - |
| 1777490711 | 21.11° C | 34% | 1019.4 hPa | 0 mm | - | 957 W/m² | - |
| 1777490409 | 19.44° C | 34% | 1019.4 hPa | 0 mm | - | 964 W/m² | - |
| 1777490105 | 20° C | 36% | 1019.4 hPa | 0 mm | - | 986 W/m² | - |
| 1777489803 | 20° C | 34% | 1019.4 hPa | 0 mm | - | 996 W/m² | - |
| 1777489500 | 21.11° C | 32% | 1019.4 hPa | 0 mm | - | 975 W/m² | - |
| 1777489196 | 20° C | 36% | 1019.6 hPa | 0 mm | - | 942 W/m² | - |
| 1777488893 | 20° C | 37% | 1019.6 hPa | 0 mm | - | 1075 W/m² | - |
| 1777488590 | 20.56° C | 35% | 1019.7 hPa | 0 mm | - | 351 W/m² | - |
| 1777488288 | 21.67° C | 33% | 1019.7 hPa | 0 mm | - | 390 W/m² | - |
| 1777487986 | 21.11° C | 35% | 1019.8 hPa | 0 mm | - | 509 W/m² | - |
| 1777487683 | 20° C | 37% | 1019.7 hPa | 0 mm | - | 1096 W/m² | - |
| 1777487380 | 20° C | 37% | 1019.9 hPa | 0 mm | - | 448 W/m² | - |
| 1777487078 | 18.89° C | 42% | 1019.8 hPa | 0 mm | - | 701 W/m² | - |
| 1777486778 | 19.44° C | 38% | 1019.7 hPa | 0 mm | - | 419 W/m² | - |
| 1777486477 | 19.44° C | 35% | 1019.7 hPa | 0 mm | - | 353 W/m² | - |
| 1777486174 | 18.89° C | 38% | 1020 hPa | 0 mm | - | 1117 W/m² | - |
| 1777485872 | 19.44° C | 38% | 1019.9 hPa | 0 mm | - | 238 W/m² | - |
| 1777485566 | 20° C | 39% | 1020.1 hPa | 0 mm | - | 398 W/m² | - |
| 1777485263 | 20° C | 36% | 1020 hPa | 0 mm | - | 824 W/m² | - |
| 1777484960 | 20.56° C | 38% | 1020.3 hPa | 0 mm | - | 292 W/m² | - |
* Rain latest hour (hover to see other rain measurements)
** Current wind speed in m/s (hover to see current wind gust speed)